sensor_id;sensor_type;location;lat;lon;timestamp;pressure;altitude;pressure_sealevel;temperature;humidity
6136;BME280;24008;42.664;23.372;2023-11-18T00:00:38;93994.47;;;5.37;100.00
6136;BME280;24008;42.664;23.372;2023-11-18T00:03:04;93936.97;;;4.97;100.00
6136;BME280;24008;42.664;23.372;2023-11-18T00:05:31;93991.66;;;5.30;100.00
6136;BME280;24008;42.664;23.372;2023-11-18T00:07:58;93975.16;;;5.05;100.00
6136;BME280;24008;42.664;23.372;2023-11-18T00:10:25;93944.78;;;4.85;100.00
6136;BME280;24008;42.664;23.372;2023-11-18T00:12:53;93980.28;;;5.25;100.00
6136;BME280;24008;42.664;23.372;2023-11-18T00:15:20;94000.41;;;5.17;100.00
6136;BME280;24008;42.664;23.372;2023-11-18T00:17:47;94014.91;;;5.15;100.00
6136;BME280;24008;42.664;23.372;2023-11-18T00:20:14;93945.97;;;4.60;100.00
6136;BME280;24008;42.664;23.372;2023-11-18T00:22:41;94033.81;;;5.11;100.00
6136;BME280;24008;42.664;23.372;2023-11-18T00:25:09;94031.97;;;5.13;100.00
6136;BME280;24008;42.664;23.372;2023-11-18T00:27:36;93817.47;;;3.71;100.00
6136;BME280;24008;42.664;23.372;2023-11-18T00:30:06;94006.19;;;5.07;100.00
6136;BME280;24008;42.664;23.372;2023-11-18T00:32:33;93786.84;;;3.64;100.00
6136;BME280;24008;42.664;23.372;2023-11-18T00:35:01;93825.31;;;3.88;100.00
6136;BME280;24008;42.664;23.372;2023-11-18T00:37:29;93902.97;;;4.18;100.00
6136;BME280;24008;42.664;23.372;2023-11-18T00:39:56;93915.66;;;4.49;100.00
6136;BME280;24008;42.664;23.372;2023-11-18T00:42:23;93882.34;;;4.02;100.00
6136;BME280;24008;42.664;23.372;2023-11-18T00:44:50;94001.66;;;5.01;100.00
6136;BME280;24008;42.664;23.372;2023-11-18T00:47:19;93999.22;;;5.00;100.00
6136;BME280;24008;42.664;23.372;2023-11-18T00:49:47;93837.78;;;4.01;100.00
6136;BME280;24008;42.664;23.372;2023-11-18T00:52:14;94003.38;;;5.01;100.00
6136;BME280;24008;42.664;23.372;2023-11-18T00:54:41;93940.91;;;4.60;100.00
6136;BME280;24008;42.664;23.372;2023-11-18T00:57:08;93919.06;;;4.38;100.00
6136;BME280;24008;42.664;23.372;2023-11-18T00:59:34;93941.41;;;4.54;100.00
6136;BME280;24008;42.664;23.372;2023-11-18T01:02:01;94004.25;;;4.90;100.00
6136;BME280;24008;42.664;23.372;2023-11-18T01:04:31;93771.59;;;3.34;100.00
6136;BME280;24008;42.664;23.372;2023-11-18T01:06:59;94016.06;;;4.80;100.00
6136;BME280;24008;42.664;23.372;2023-11-18T01:09:26;94019.50;;;4.79;100.00
6136;BME280;24008;42.664;23.372;2023-11-18T01:11:53;93881.13;;;3.96;100.00
6136;BME280;24008;42.664;23.372;2023-11-18T01:14:20;93939.75;;;4.22;100.00
6136;BME280;24008;42.664;23.372;2023-11-18T01:16:48;93954.38;;;4.40;100.00
6136;BME280;24008;42.664;23.372;2023-11-18T01:19:15;94025.38;;;4.80;100.00
6136;BME280;24008;42.664;23.372;2023-11-18T01:21:45;93950.28;;;4.27;100.00
6136;BME280;24008;42.664;23.372;2023-11-18T01:24:11;93890.31;;;3.97;100.00
6136;BME280;24008;42.664;23.372;2023-11-18T01:26:39;94006.16;;;4.56;100.00
6136;BME280;24008;42.664;23.372;2023-11-18T01:29:06;93884.94;;;3.91;100.00
6136;BME280;24008;42.664;23.372;2023-11-18T01:31:32;94046.66;;;4.77;100.00
6136;BME280;24008;42.664;23.372;2023-11-18T01:33:59;94023.19;;;4.75;100.00
6136;BME280;24008;42.664;23.372;2023-11-18T01:36:26;94039.31;;;4.74;100.00
6136;BME280;24008;42.664;23.372;2023-11-18T01:38:54;93581.84;;;1.69;100.00
6136;BME280;24008;42.664;23.372;2023-11-18T01:41:22;94041.31;;;4.70;100.00
6136;BME280;24008;42.664;23.372;2023-11-18T01:43:49;93843.75;;;3.47;100.00
6136;BME280;24008;42.664;23.372;2023-11-18T01:46:16;94021.53;;;4.64;100.00
6136;BME280;24008;42.664;23.372;2023-11-18T01:48:45;94006.13;;;4.35;100.00
6136;BME280;24008;42.664;23.372;2023-11-18T01:51:12;94025.22;;;4.60;100.00
6136;BME280;24008;42.664;23.372;2023-11-18T01:53:42;93897.38;;;3.83;100.00
6136;BME280;24008;42.664;23.372;2023-11-18T01:56:10;94024.41;;;4.60;100.00
6136;BME280;24008;42.664;23.372;2023-11-18T01:58:38;94018.25;;;4.53;100.00
6136;BME280;24008;42.664;23.372;2023-11-18T02:01:06;93804.59;;;3.21;100.00
6136;BME280;24008;42.664;23.372;2023-11-18T02:03:34;93990.06;;;4.25;100.00
6136;BME280;24008;42.664;23.372;2023-11-18T02:06:02;93973.72;;;4.09;100.00
6136;BME280;24008;42.664;23.372;2023-11-18T02:08:31;94025.16;;;4.51;100.00
6136;BME280;24008;42.664;23.372;2023-11-18T02:11:05;94045.16;;;4.54;100.00
6136;BME280;24008;42.664;23.372;2023-11-18T02:13:40;93903.16;;;3.74;100.00
6136;BME280;24008;42.664;23.372;2023-11-18T02:16:09;94030.44;;;4.48;100.00
6136;BME280;24008;42.664;23.372;2023-11-18T02:18:38;94021.00;;;4.50;100.00
6136;BME280;24008;42.664;23.372;2023-11-18T02:21:07;94008.00;;;4.33;99.09
6136;BME280;24008;42.664;23.372;2023-11-18T02:23:34;93958.94;;;3.93;98.42
6136;BME280;24008;42.664;23.372;2023-11-18T02:26:04;93996.59;;;4.07;97.85
6136;BME280;24008;42.664;23.372;2023-11-18T02:28:31;94027.97;;;4.37;96.82
6136;BME280;24008;42.664;23.372;2023-11-18T02:31:03;93959.38;;;3.98;96.84
6136;BME280;24008;42.664;23.372;2023-11-18T02:33:35;93949.63;;;3.93;96.70
6136;BME280;24008;42.664;23.372;2023-11-18T02:36:09;93959.13;;;4.01;96.05
6136;BME280;24008;42.664;23.372;2023-11-18T02:38:44;94018.13;;;4.33;95.20
6136;BME280;24008;42.664;23.372;2023-11-18T02:41:16;93769.84;;;2.48;93.77
6136;BME280;24008;42.664;23.372;2023-11-18T02:43:45;94014.09;;;4.31;94.03
6136;BME280;24008;42.664;23.372;2023-11-18T02:46:13;93825.16;;;2.94;93.50
6136;BME280;24008;42.664;23.372;2023-11-18T02:48:40;94021.44;;;4.23;92.99
6136;BME280;24008;42.664;23.372;2023-11-18T02:51:07;94072.19;;;4.21;92.95
6136;BME280;24008;42.664;23.372;2023-11-18T02:53:37;94049.41;;;4.21;92.82
6136;BME280;24008;42.664;23.372;2023-11-18T02:56:07;94007.88;;;3.92;93.06
6136;BME280;24008;42.664;23.372;2023-11-18T02:58:36;94000.94;;;3.62;91.96
6136;BME280;24008;42.664;23.372;2023-11-18T03:01:03;94042.63;;;4.11;92.47
6136;BME280;24008;42.664;23.372;2023-11-18T03:03:30;94033.03;;;4.05;90.84
6136;BME280;24008;42.664;23.372;2023-11-18T03:05:57;94052.56;;;4.03;90.79
6136;BME280;24008;42.664;23.372;2023-11-18T03:08:25;94055.78;;;3.93;90.70
6136;BME280;24008;42.664;23.372;2023-11-18T03:10:53;94008.16;;;3.67;90.52
6136;BME280;24008;42.664;23.372;2023-11-18T03:13:20;94030.06;;;3.77;90.58
6136;BME280;24008;42.664;23.372;2023-11-18T03:15:50;94071.78;;;3.83;90.92
6136;BME280;24008;42.664;23.372;2023-11-18T03:18:17;94068.34;;;3.84;91.02
6136;BME280;24008;42.664;23.372;2023-11-18T03:20:44;93791.59;;;1.93;90.98
6136;BME280;24008;42.664;23.372;2023-11-18T03:23:11;94118.41;;;3.79;90.98
6136;BME280;24008;42.664;23.372;2023-11-18T03:25:37;94085.22;;;3.72;89.38
6136;BME280;24008;42.664;23.372;2023-11-18T03:28:04;94107.16;;;3.72;90.05
6136;BME280;24008;42.664;23.372;2023-11-18T03:30:32;94093.84;;;3.70;90.23
6136;BME280;24008;42.664;23.372;2023-11-18T03:33:02;94001.97;;;3.15;90.92
6136;BME280;24008;42.664;23.372;2023-11-18T03:35:29;94053.06;;;3.30;90.34
6136;BME280;24008;42.664;23.372;2023-11-18T03:37:56;94077.50;;;3.40;89.66
6136;BME280;24008;42.664;23.372;2023-11-18T03:40:23;94064.56;;;3.34;89.00
6136;BME280;24008;42.664;23.372;2023-11-18T03:42:50;93911.75;;;2.39;89.54
6136;BME280;24008;42.664;23.372;2023-11-18T03:45:19;94084.88;;;3.54;89.40
6136;BME280;24008;42.664;23.372;2023-11-18T03:47:46;94074.97;;;3.29;89.34
6136;BME280;24008;42.664;23.372;2023-11-18T03:50:17;94107.97;;;3.50;88.91
6136;BME280;24008;42.664;23.372;2023-11-18T03:52:43;93955.66;;;2.47;88.50
6136;BME280;24008;42.664;23.372;2023-11-18T03:55:11;94071.53;;;3.19;88.50
6136;BME280;24008;42.664;23.372;2023-11-18T03:57:37;94098.53;;;3.41;88.57
6136;BME280;24008;42.664;23.372;2023-11-18T04:00:05;93960.81;;;2.46;88.88
6136;BME280;24008;42.664;23.372;2023-11-18T04:02:32;94041.63;;;2.90;88.34
6136;BME280;24008;42.664;23.372;2023-11-18T04:05:01;94102.78;;;3.40;88.08
6136;BME280;24008;42.664;23.372;2023-11-18T04:07:30;94051.16;;;2.87;86.87
6136;BME280;24008;42.664;23.372;2023-11-18T04:09:57;94123.34;;;3.36;87.65
6136;BME280;24008;42.664;23.372;2023-11-18T04:12:25;94123.22;;;3.37;88.04
6136;BME280;24008;42.664;23.372;2023-11-18T04:14:52;94123.22;;;3.37;87.70
6136;BME280;24008;42.664;23.372;2023-11-18T04:17:19;93961.09;;;2.30;86.67
6136;BME280;24008;42.664;23.372;2023-11-18T04:19:46;94133.75;;;3.31;87.14
6136;BME280;24008;42.664;23.372;2023-11-18T04:22:12;94123.66;;;3.31;86.84
6136;BME280;24008;42.664;23.372;2023-11-18T04:24:41;94131.34;;;3.30;87.39
6136;BME280;24008;42.664;23.372;2023-11-18T04:27:09;94127.47;;;3.25;86.61
6136;BME280;24008;42.664;23.372;2023-11-18T04:29:36;94110.81;;;3.23;86.73
6136;BME280;24008;42.664;23.372;2023-11-18T04:32:04;94131.69;;;3.25;86.42
6136;BME280;24008;42.664;23.372;2023-11-18T04:34:31;94024.56;;;2.48;86.65
6136;BME280;24008;42.664;23.372;2023-11-18T04:36:58;94098.59;;;3.06;86.06
6136;BME280;24008;42.664;23.372;2023-11-18T04:39:25;94139.50;;;3.22;85.20
6136;BME280;24008;42.664;23.372;2023-11-18T04:41:55;94112.63;;;3.21;84.65
6136;BME280;24008;42.664;23.372;2023-11-18T04:44:22;94128.00;;;3.18;84.36
6136;BME280;24008;42.664;23.372;2023-11-18T04:46:49;94133.16;;;3.16;84.25
6136;BME280;24008;42.664;23.372;2023-11-18T04:49:15;93990.78;;;2.27;84.70
6136;BME280;24008;42.664;23.372;2023-11-18T04:51:42;94012.81;;;2.36;85.24
6136;BME280;24008;42.664;23.372;2023-11-18T04:54:09;94119.44;;;2.97;84.64
6136;BME280;24008;42.664;23.372;2023-11-18T04:56:36;94142.34;;;3.17;84.81
6136;BME280;24008;42.664;23.372;2023-11-18T04:59:04;94085.59;;;2.88;85.17
6136;BME280;24008;42.664;23.372;2023-11-18T05:01:31;94104.16;;;2.87;84.78
6136;BME280;24008;42.664;23.372;2023-11-18T05:03:59;94134.63;;;3.08;84.75
6136;BME280;24008;42.664;23.372;2023-11-18T05:06:26;94062.91;;;2.64;83.78
6136;BME280;24008;42.664;23.372;2023-11-18T05:08:52;94135.66;;;3.05;84.31
6136;BME280;24008;42.664;23.372;2023-11-18T05:11:20;94099.66;;;2.79;85.13
6136;BME280;24008;42.664;23.372;2023-11-18T05:13:46;94135.09;;;3.02;84.45
6136;BME280;24008;42.664;23.372;2023-11-18T05:16:16;94091.97;;;2.81;84.10
6136;BME280;24008;42.664;23.372;2023-11-18T05:18:43;94077.19;;;2.76;84.81
6136;BME280;24008;42.664;23.372;2023-11-18T05:21:10;94134.94;;;3.03;83.71
6136;BME280;24008;42.664;23.372;2023-11-18T05:23:36;94132.56;;;3.02;84.05
6136;BME280;24008;42.664;23.372;2023-11-18T05:26:04;94134.38;;;3.00;84.71
6136;BME280;24008;42.664;23.372;2023-11-18T05:28:31;94063.34;;;2.58;84.67
6136;BME280;24008;42.664;23.372;2023-11-18T05:30:58;94120.03;;;3.00;84.94
6136;BME280;24008;42.664;23.372;2023-11-18T05:33:28;94123.47;;;2.99;84.33
6136;BME280;24008;42.664;23.372;2023-11-18T05:35:56;94021.50;;;2.32;83.66
6136;BME280;24008;42.664;23.372;2023-11-18T05:38:23;93689.53;;;0.36;83.20
6136;BME280;24008;42.664;23.372;2023-11-18T05:40:53;94117.72;;;2.97;83.53
6136;BME280;24008;42.664;23.372;2023-11-18T05:43:23;93979.97;;;2.13;83.02
6136;BME280;24008;42.664;23.372;2023-11-18T05:45:51;94093.41;;;2.96;83.18
6136;BME280;24008;42.664;23.372;2023-11-18T05:48:37;94011.66;;;2.29;82.76
6136;BME280;24008;42.664;23.372;2023-11-18T05:51:05;94120.00;;;2.89;83.64
6136;BME280;24008;42.664;23.372;2023-11-18T05:53:32;94044.25;;;2.43;82.82
6136;BME280;24008;42.664;23.372;2023-11-18T05:55:58;93838.66;;;1.10;83.03
6136;BME280;24008;42.664;23.372;2023-11-18T05:58:25;94051.50;;;2.47;83.11
6136;BME280;24008;42.664;23.372;2023-11-18T06:00:53;94110.03;;;2.87;83.42
6136;BME280;24008;42.664;23.372;2023-11-18T06:03:20;93953.31;;;1.98;83.23
6136;BME280;24008;42.664;23.372;2023-11-18T06:05:49;94098.31;;;2.86;83.66
6136;BME280;24008;42.664;23.372;2023-11-18T06:08:16;94078.88;;;2.65;82.58
6136;BME280;24008;42.664;23.372;2023-11-18T06:10:44;94059.09;;;2.59;83.29
6136;BME280;24008;42.664;23.372;2023-11-18T06:13:10;94107.03;;;2.94;82.89
6136;BME280;24008;42.664;23.372;2023-11-18T06:15:38;93883.63;;;1.51;83.07
6136;BME280;24008;42.664;23.372;2023-11-18T06:18:05;94121.28;;;2.95;83.28
6136;BME280;24008;42.664;23.372;2023-11-18T06:20:34;94126.53;;;2.92;83.34
6136;BME280;24008;42.664;23.372;2023-11-18T06:23:03;94130.66;;;2.93;83.78
6136;BME280;24008;42.664;23.372;2023-11-18T06:25:29;94146.63;;;2.93;84.13
6136;BME280;24008;42.664;23.372;2023-11-18T06:27:57;94129.75;;;2.94;84.97
6136;BME280;24008;42.664;23.372;2023-11-18T06:30:24;94132.38;;;2.92;83.91
6136;BME280;24008;42.664;23.372;2023-11-18T06:32:51;94119.59;;;2.71;84.65
6136;BME280;24008;42.664;23.372;2023-11-18T06:35:18;93973.44;;;1.87;83.33
6136;BME280;24008;42.664;23.372;2023-11-18T06:37:46;94131.69;;;2.90;83.83
6136;BME280;24008;42.664;23.372;2023-11-18T06:40:15;94138.94;;;2.95;84.26
6136;BME280;24008;42.664;23.372;2023-11-18T06:42:47;94009.78;;;2.20;84.11
6136;BME280;24008;42.664;23.372;2023-11-18T06:45:14;93897.72;;;1.54;83.63
6136;BME280;24008;42.664;23.372;2023-11-18T06:47:42;94148.47;;;3.02;83.20
6136;BME280;24008;42.664;23.372;2023-11-18T06:50:09;94115.06;;;2.87;83.37
6136;BME280;24008;42.664;23.372;2023-11-18T06:52:39;94125.56;;;3.16;82.24
6136;BME280;24008;42.664;23.372;2023-11-18T06:55:07;93857.84;;;1.48;80.75
6136;BME280;24008;42.664;23.372;2023-11-18T06:57:36;94109.78;;;2.90;79.47
6136;BME280;24008;42.664;23.372;2023-11-18T07:00:04;94118.63;;;2.96;80.33
6136;BME280;24008;42.664;23.372;2023-11-18T07:02:34;94170.13;;;3.29;79.61
6136;BME280;24008;42.664;23.372;2023-11-18T07:05:01;94064.59;;;2.52;79.96
6136;BME280;24008;42.664;23.372;2023-11-18T07:07:28;94169.34;;;3.39;79.65
6136;BME280;24008;42.664;23.372;2023-11-18T07:09:54;94164.09;;;3.42;79.77
6136;BME280;24008;42.664;23.372;2023-11-18T07:12:21;94166.19;;;3.48;78.73
6136;BME280;24008;42.664;23.372;2023-11-18T07:14:50;94158.81;;;3.45;78.72
6136;BME280;24008;42.664;23.372;2023-11-18T07:17:17;94144.97;;;3.16;77.75
6136;BME280;24008;42.664;23.372;2023-11-18T07:19:44;94080.88;;;2.95;77.98
6136;BME280;24008;42.664;23.372;2023-11-18T07:22:11;93878.22;;;1.44;77.36
6136;BME280;24008;42.664;23.372;2023-11-18T07:24:38;94164.28;;;3.28;79.23
6136;BME280;24008;42.664;23.372;2023-11-18T07:27:05;94149.28;;;3.03;78.91
6136;BME280;24008;42.664;23.372;2023-11-18T07:29:32;94168.88;;;3.23;79.54
6136;BME280;24008;42.664;23.372;2023-11-18T07:32:00;94095.75;;;2.75;79.90
6136;BME280;24008;42.664;23.372;2023-11-18T07:34:31;94026.13;;;2.38;80.41
6136;BME280;24008;42.664;23.372;2023-11-18T07:36:58;94170.81;;;3.19;79.84
6136;BME280;24008;42.664;23.372;2023-11-18T07:39:25;94097.09;;;2.68;80.00
6136;BME280;24008;42.664;23.372;2023-11-18T07:42:09;94150.91;;;3.04;80.18
6136;BME280;24008;42.664;23.372;2023-11-18T07:44:36;93885.59;;;1.59;80.08
6136;BME280;24008;42.664;23.372;2023-11-18T07:47:06;94136.72;;;3.14;78.83
6136;BME280;24008;42.664;23.372;2023-11-18T07:49:34;93548.88;;;-0.60;78.81
6136;BME280;24008;42.664;23.372;2023-11-18T07:52:01;94078.13;;;2.86;79.16
6136;BME280;24008;42.664;23.372;2023-11-18T07:54:28;94054.44;;;2.17;78.10
6136;BME280;24008;42.664;23.372;2023-11-18T07:56:55;94165.16;;;3.16;78.32
6136;BME280;24008;42.664;23.372;2023-11-18T07:59:22;93975.31;;;1.96;79.74
6136;BME280;24008;42.664;23.372;2023-11-18T08:01:49;93751.50;;;0.61;78.75
6136;BME280;24008;42.664;23.372;2023-11-18T08:04:20;94119.63;;;2.82;79.68
6136;BME280;24008;42.664;23.372;2023-11-18T08:06:47;94114.69;;;2.81;78.94
6136;BME280;24008;42.664;23.372;2023-11-18T08:09:14;94112.13;;;2.70;78.33
6136;BME280;24008;42.664;23.372;2023-11-18T08:11:48;94060.69;;;2.48;77.88
6136;BME280;24008;42.664;23.372;2023-11-18T08:14:15;94104.66;;;2.68;78.31
6136;BME280;24008;42.664;23.372;2023-11-18T08:16:41;94158.66;;;2.89;78.25
6136;BME280;24008;42.664;23.372;2023-11-18T08:19:08;94029.94;;;2.20;78.25
6136;BME280;24008;42.664;23.372;2023-11-18T08:21:36;94178.16;;;3.22;78.42
6136;BME280;24008;42.664;23.372;2023-11-18T08:24:06;94093.56;;;2.71;77.46
6136;BME280;24008;42.664;23.372;2023-11-18T08:26:33;94164.53;;;3.25;77.57
6136;BME280;24008;42.664;23.372;2023-11-18T08:29:01;94015.50;;;2.22;77.72
6136;BME280;24008;42.664;23.372;2023-11-18T08:31:28;94124.91;;;2.90;77.38
6136;BME280;24008;42.664;23.372;2023-11-18T08:33:54;94133.56;;;2.99;77.03
6136;BME280;24008;42.664;23.372;2023-11-18T08:36:21;94174.16;;;3.31;76.18
6136;BME280;24008;42.664;23.372;2023-11-18T08:38:53;93955.41;;;2.28;76.78
6136;BME280;24008;42.664;23.372;2023-11-18T08:41:22;94163.41;;;3.40;77.19
6136;BME280;24008;42.664;23.372;2023-11-18T08:43:50;94120.13;;;3.34;77.21
6136;BME280;24008;42.664;23.372;2023-11-18T08:46:17;94132.66;;;3.46;75.75
6136;BME280;24008;42.664;23.372;2023-11-18T08:48:44;94137.13;;;3.54;75.43
6136;BME280;24008;42.664;23.372;2023-11-18T08:51:13;94187.56;;;3.78;75.28
6136;BME280;24008;42.664;23.372;2023-11-18T08:53:42;94191.03;;;3.77;74.63
6136;BME280;24008;42.664;23.372;2023-11-18T08:56:10;94157.00;;;3.47;74.87
6136;BME280;24008;42.664;23.372;2023-11-18T08:58:41;94120.00;;;3.35;74.89
6136;BME280;24008;42.664;23.372;2023-11-18T09:01:10;94205.03;;;3.70;74.65
6136;BME280;24008;42.664;23.372;2023-11-18T09:03:40;94185.50;;;3.60;75.24
6136;BME280;24008;42.664;23.372;2023-11-18T09:06:14;94172.28;;;3.57;75.50
6136;BME280;24008;42.664;23.372;2023-11-18T09:08:45;94116.59;;;3.01;75.16
6136;BME280;24008;42.664;23.372;2023-11-18T09:11:20;93863.28;;;1.54;75.59
6136;BME280;24008;42.664;23.372;2023-11-18T09:13:48;94194.66;;;3.50;76.43
6136;BME280;24008;42.664;23.372;2023-11-18T09:16:20;94168.91;;;3.34;75.75
6136;BME280;24008;42.664;23.372;2023-11-18T09:18:48;94189.38;;;3.53;75.78
6136;BME280;24008;42.664;23.372;2023-11-18T09:21:16;93919.13;;;1.83;75.81
6136;BME280;24008;42.664;23.372;2023-11-18T09:23:48;94224.75;;;3.53;75.88
6136;BME280;24008;42.664;23.372;2023-11-18T09:26:15;94165.50;;;3.57;75.36
6136;BME280;24008;42.664;23.372;2023-11-18T09:28:44;94175.63;;;3.69;75.08
6136;BME280;24008;42.664;23.372;2023-11-18T09:31:11;94039.09;;;2.90;75.23
6136;BME280;24008;42.664;23.372;2023-11-18T09:33:39;94165.75;;;3.88;74.90
6136;BME280;24008;42.664;23.372;2023-11-18T09:36:12;94175.41;;;3.83;74.48
6136;BME280;24008;42.664;23.372;2023-11-18T09:38:40;93785.72;;;1.35;73.93
6136;BME280;24008;42.664;23.372;2023-11-18T09:41:08;94155.63;;;3.66;74.34
6136;BME280;24008;42.664;23.372;2023-11-18T09:43:37;93968.38;;;2.46;74.31
6136;BME280;24008;42.664;23.372;2023-11-18T09:46:13;93727.00;;;1.00;74.26
6136;BME280;24008;42.664;23.372;2023-11-18T09:48:42;94048.13;;;3.28;73.75
6136;BME280;24008;42.664;23.372;2023-11-18T09:51:15;93502.63;;;-0.09;72.47
6136;BME280;24008;42.664;23.372;2023-11-18T09:53:49;94159.56;;;4.03;73.16
6136;BME280;24008;42.664;23.372;2023-11-18T09:56:20;93994.16;;;3.07;73.20
6136;BME280;24008;42.664;23.372;2023-11-18T09:59:01;94051.69;;;3.37;73.52
6136;BME280;24008;42.664;23.372;2023-11-18T10:01:38;93867.09;;;2.06;72.38
6136;BME280;24008;42.664;23.372;2023-11-18T10:04:08;94064.19;;;3.38;73.48
6136;BME280;24008;42.664;23.372;2023-11-18T10:06:36;94068.09;;;3.31;73.59
6136;BME280;24008;42.664;23.372;2023-11-18T10:09:06;93965.84;;;2.46;72.53
6136;BME280;24008;42.664;23.372;2023-11-18T10:11:42;94169.28;;;3.63;73.39
6136;BME280;24008;42.664;23.372;2023-11-18T10:14:12;94152.28;;;3.54;73.77
6136;BME280;24008;42.664;23.372;2023-11-18T10:16:43;94171.00;;;3.51;74.08
6136;BME280;24008;42.664;23.372;2023-11-18T10:19:12;94176.28;;;3.48;74.50
6136;BME280;24008;42.664;23.372;2023-11-18T10:21:42;94127.31;;;3.27;74.00
6136;BME280;24008;42.664;23.372;2023-11-18T10:24:09;94115.38;;;3.18;74.64
6136;BME280;24008;42.664;23.372;2023-11-18T10:26:41;94168.13;;;3.56;74.17
6136;BME280;24008;42.664;23.372;2023-11-18T10:29:10;94173.78;;;3.59;73.63
6136;BME280;24008;42.664;23.372;2023-11-18T10:31:38;94174.59;;;3.60;74.50
6136;BME280;24008;42.664;23.372;2023-11-18T10:34:12;94087.81;;;3.15;74.39
6136;BME280;24008;42.664;23.372;2023-11-18T10:36:42;94085.78;;;3.42;72.88
6136;BME280;24008;42.664;23.372;2023-11-18T10:39:28;94147.25;;;3.87;72.32
6136;BME280;24008;42.664;23.372;2023-11-18T10:41:58;94141.38;;;3.87;71.05
6136;BME280;24008;42.664;23.372;2023-11-18T10:44:25;94144.16;;;3.95;72.08
6136;BME280;24008;42.664;23.372;2023-11-18T10:46:53;94140.59;;;3.97;71.55
6136;BME280;24008;42.664;23.372;2023-11-18T10:49:23;94138.19;;;4.07;70.95
6136;BME280;24008;42.664;23.372;2023-11-18T10:51:50;94045.84;;;3.58;70.15
6136;BME280;24008;42.664;23.372;2023-11-18T10:54:17;94120.25;;;4.10;70.25
6136;BME280;24008;42.664;23.372;2023-11-18T10:56:47;94082.31;;;3.88;70.63
6136;BME280;24008;42.664;23.372;2023-11-18T10:59:14;94103.06;;;4.36;69.74
6136;BME280;24008;42.664;23.372;2023-11-18T11:01:44;94104.22;;;4.32;69.59
6136;BME280;24008;42.664;23.372;2023-11-18T11:04:14;94066.22;;;4.22;69.31
6136;BME280;24008;42.664;23.372;2023-11-18T11:06:48;94122.84;;;4.74;69.52
6136;BME280;24008;42.664;23.372;2023-11-18T11:09:18;93991.53;;;4.07;68.28
6136;BME280;24008;42.664;23.372;2023-11-18T11:11:53;94120.72;;;4.90;67.51
6136;BME280;24008;42.664;23.372;2023-11-18T11:14:21;93921.53;;;3.76;67.24
6136;BME280;24008;42.664;23.372;2023-11-18T11:16:52;93643.47;;;1.19;67.37
6136;BME280;24008;42.664;23.372;2023-11-18T11:19:25;93945.03;;;3.44;67.60
6136;BME280;24008;42.664;23.372;2023-11-18T11:22:01;94157.91;;;4.47;68.84
6136;BME280;24008;42.664;23.372;2023-11-18T11:24:41;94098.75;;;4.16;69.07
6136;BME280;24008;42.664;23.372;2023-11-18T11:27:20;93903.19;;;2.75;69.06
6136;BME280;24008;42.664;23.372;2023-11-18T11:29:59;94105.06;;;3.88;69.54
6136;BME280;24008;42.664;23.372;2023-11-18T11:32:39;94157.72;;;4.05;70.26
6136;BME280;24008;42.664;23.372;2023-11-18T11:35:18;93433.28;;;-0.46;70.26
6136;BME280;24008;42.664;23.372;2023-11-18T11:37:48;94119.56;;;3.75;70.82
6136;BME280;24008;42.664;23.372;2023-11-18T11:40:16;94141.63;;;3.84;70.50
6136;BME280;24008;42.664;23.372;2023-11-18T11:42:50;94041.72;;;3.24;71.44
6136;BME280;24008;42.664;23.372;2023-11-18T11:45:22;94147.84;;;3.91;71.79
6136;BME280;24008;42.664;23.372;2023-11-18T11:47:55;94134.50;;;3.89;71.22
6136;BME280;24008;42.664;23.372;2023-11-18T11:50:57;93972.94;;;2.87;71.06
6136;BME280;24008;42.664;23.372;2023-11-18T11:53:34;94086.47;;;3.33;71.18
6136;BME280;24008;42.664;23.372;2023-11-18T11:56:05;94137.72;;;3.80;71.50
6136;BME280;24008;42.664;23.372;2023-11-18T11:58:34;93918.41;;;2.40;72.02
6136;BME280;24008;42.664;23.372;2023-11-18T12:01:15;93821.75;;;1.71;71.26
6136;BME280;24008;42.664;23.372;2023-11-18T12:03:45;94135.19;;;3.80;71.55
6136;BME280;24008;42.664;23.372;2023-11-18T12:06:13;93710.69;;;1.05;71.83
6136;BME280;24008;42.664;23.372;2023-11-18T12:08:43;94150.34;;;3.80;71.26
6136;BME280;24008;42.664;23.372;2023-11-18T12:11:11;94052.50;;;3.37;71.82
6136;BME280;24008;42.664;23.372;2023-11-18T12:13:38;94163.91;;;4.01;70.87
6136;BME280;24008;42.664;23.372;2023-11-18T12:16:06;93618.66;;;0.44;71.36
6136;BME280;24008;42.664;23.372;2023-11-18T12:18:35;94144.28;;;3.93;70.46
6136;BME280;24008;42.664;23.372;2023-11-18T12:21:03;94148.75;;;3.90;71.17
6136;BME280;24008;42.664;23.372;2023-11-18T12:23:30;94146.44;;;3.87;71.34
6136;BME280;24008;42.664;23.372;2023-11-18T12:26:01;93926.88;;;2.39;71.43
6136;BME280;24008;42.664;23.372;2023-11-18T12:28:29;94076.34;;;3.11;72.23
6136;BME280;24008;42.664;23.372;2023-11-18T12:31:00;94166.44;;;3.79;72.47
6136;BME280;24008;42.664;23.372;2023-11-18T12:34:02;94153.81;;;3.79;71.83
6136;BME280;24008;42.664;23.372;2023-11-18T12:36:56;93980.00;;;2.60;71.37
6136;BME280;24008;42.664;23.372;2023-11-18T12:39:49;94102.22;;;3.37;72.34
6136;BME280;24008;42.664;23.372;2023-11-18T12:43:00;94157.72;;;3.72;72.63
6136;BME280;24008;42.664;23.372;2023-11-18T12:48:27;93591.91;;;-0.05;71.86
6136;BME280;24008;42.664;23.372;2023-11-18T12:50:58;94063.72;;;3.22;72.19
6136;BME280;24008;42.664;23.372;2023-11-18T12:53:25;94031.72;;;3.11;72.75
6136;BME280;24008;42.664;23.372;2023-11-18T12:55:53;94090.41;;;3.48;73.28
6136;BME280;24008;42.664;23.372;2023-11-18T12:58:22;94141.75;;;3.82;72.12
6136;BME280;24008;42.664;23.372;2023-11-18T13:00:50;94034.34;;;3.21;72.93
6136;BME280;24008;42.664;23.372;2023-11-18T13:03:17;93969.50;;;2.77;72.10
6136;BME280;24008;42.664;23.372;2023-11-18T13:05:45;94018.03;;;3.03;71.90
6136;BME280;24008;42.664;23.372;2023-11-18T13:08:14;94052.72;;;3.12;72.21
6136;BME280;24008;42.664;23.372;2023-11-18T13:10:41;94083.25;;;3.42;72.55
6136;BME280;24008;42.664;23.372;2023-11-18T13:13:10;94113.94;;;3.60;72.03
6136;BME280;24008;42.664;23.372;2023-11-18T13:15:41;94180.91;;;3.99;72.92
6136;BME280;24008;42.664;23.372;2023-11-18T13:18:08;94101.41;;;3.58;73.28
6136;BME280;24008;42.664;23.372;2023-11-18T13:20:35;94157.59;;;4.07;73.13
6136;BME280;24008;42.664;23.372;2023-11-18T13:23:03;94108.09;;;3.59;72.61